createdAt,value
2018-06-16T00:46:21.398Z,84.60
2018-06-16T00:51:25.841Z,90.30
2018-06-16T00:56:30.314Z,91.40
2018-06-16T01:01:34.870Z,92.60
2018-06-16T01:06:39.444Z,92.90
2018-06-16T01:11:43.987Z,92.90
2018-06-16T01:16:48.574Z,92.90
2018-06-16T01:21:53.206Z,93.10
2018-06-16T01:26:57.850Z,93.10
2018-06-16T01:32:02.452Z,93.60
2018-06-16T01:37:07.014Z,93.90
2018-06-16T01:42:11.788Z,94.20
2018-06-16T01:47:16.600Z,94.80
2018-06-16T01:52:21.269Z,95.20
2018-06-16T01:57:25.803Z,95.30
2018-06-16T02:02:30.352Z,95.00
2018-06-16T02:07:35.032Z,95.60
2018-06-16T02:12:39.488Z,96.30
2018-06-16T02:17:43.949Z,96.50
2018-06-16T02:22:48.605Z,96.80
2018-06-16T02:27:52.983Z,97.20
2018-06-16T02:32:57.524Z,97.70
2018-06-16T02:38:01.985Z,97.90
2018-06-16T02:43:06.683Z,98.00
2018-06-16T02:48:11.511Z,98.20
2018-06-16T02:53:16.174Z,98.70
2018-06-16T02:58:20.822Z,99.00
2018-06-16T03:03:25.461Z,98.70
2018-06-16T03:08:30.301Z,98.60
2018-06-16T03:13:34.856Z,99.30
2018-06-16T03:18:39.412Z,99.30
2018-06-16T03:23:43.880Z,99.30
2018-06-16T03:28:48.339Z,99.50
2018-06-16T03:33:52.836Z,99.50
2018-06-16T03:38:57.453Z,99.30
2018-06-16T03:44:01.936Z,99.10
2018-06-16T03:49:07.007Z,99.50
2018-06-16T03:54:11.522Z,99.60
2018-06-16T03:59:16.021Z,99.60
2018-06-16T04:04:20.525Z,99.60
2018-06-16T04:09:25.041Z,99.60
2018-06-16T04:14:29.541Z,99.60
2018-06-16T04:19:34.033Z,99.60
2018-06-16T04:24:38.724Z,99.60
2018-06-16T04:29:43.252Z,99.60
2018-06-16T04:34:47.873Z,99.60
2018-06-16T04:39:52.691Z,99.60
2018-06-16T04:44:57.242Z,99.60
2018-06-16T04:50:01.828Z,99.60
2018-06-16T04:55:06.327Z,99.60
2018-06-16T05:00:10.802Z,99.50
2018-06-16T05:05:15.243Z,99.60
2018-06-16T05:10:19.784Z,99.10
2018-06-16T05:15:24.278Z,97.60
2018-06-16T05:20:28.722Z,96.50
2018-06-16T05:25:33.452Z,96.60
2018-06-16T05:30:37.921Z,95.70
2018-06-16T05:35:42.396Z,96.50
2018-06-16T05:40:46.916Z,96.90
2018-06-16T05:45:51.348Z,96.20
2018-06-16T05:50:55.925Z,96.20
2018-06-16T05:56:00.505Z,95.00
2018-06-16T06:01:05.150Z,92.20
2018-06-16T06:06:09.706Z,91.40
2018-06-16T06:11:15.323Z,91.10
2018-06-16T06:16:20.011Z,90.70
2018-06-16T06:21:24.612Z,89.80
2018-06-16T06:26:29.231Z,90.00
2018-06-16T06:31:33.766Z,88.90
2018-06-16T06:36:38.371Z,88.80
2018-06-16T06:41:43.038Z,89.40
2018-06-16T06:46:47.654Z,88.50
2018-06-16T06:51:52.287Z,88.80
2018-06-16T06:56:56.839Z,89.60
2018-06-16T07:02:03.845Z,88.70
2018-06-16T07:07:08.455Z,88.30
2018-06-16T07:12:12.998Z,88.70
2018-06-16T07:17:17.507Z,88.00
2018-06-16T07:22:22.584Z,88.00
2018-06-16T07:27:27.496Z,87.10
2018-06-16T07:32:33.025Z,88.20
2018-06-16T07:37:37.774Z,88.10
2018-06-16T10:00:32.720Z,88.00
2018-06-16T10:05:37.241Z,81.80
2018-06-16T10:10:41.674Z,81.30
2018-06-16T10:15:46.160Z,79.30
2018-06-16T10:20:50.678Z,80.80
2018-06-16T10:25:55.183Z,81.20
2018-06-16T10:30:59.666Z,79.30
2018-06-16T10:36:04.209Z,80.00
2018-06-16T10:41:08.690Z,79.00
2018-06-16T10:46:13.223Z,79.40
2018-06-16T10:51:17.683Z,78.60
2018-06-16T10:56:22.327Z,77.60
2018-06-16T11:01:27.059Z,78.20
2018-06-16T11:06:31.513Z,77.10
2018-06-16T11:11:36.177Z,76.40
2018-06-16T11:16:40.814Z,75.40
2018-06-16T11:21:45.205Z,74.60
2018-06-16T11:26:50.108Z,73.60
2018-06-16T11:31:54.820Z,74.70
2018-06-16T11:36:59.363Z,69.60
2018-06-16T11:42:03.930Z,69.80
2018-06-16T11:47:08.586Z,72.20
2018-06-16T11:52:13.119Z,68.50
2018-06-16T11:57:17.799Z,68.30
2018-06-16T12:02:22.395Z,67.20
2018-06-16T12:07:27.125Z,67.60
2018-06-16T12:12:31.761Z,63.30
2018-06-16T12:17:36.497Z,61.50
2018-06-16T12:22:41.083Z,60.50
2018-06-16T12:27:45.625Z,58.30
2018-06-16T12:32:50.095Z,57.00
2018-06-16T12:37:54.651Z,57.00
2018-06-16T12:42:59.087Z,56.90
2018-06-16T12:48:03.694Z,55.70
2018-06-16T12:53:08.176Z,54.80
2018-06-16T12:58:12.840Z,55.60
2018-06-16T13:03:17.396Z,53.70
2018-06-16T13:08:21.985Z,54.80
2018-06-16T13:13:26.514Z,53.30
2018-06-16T13:18:31.081Z,54.00
2018-06-16T13:23:35.664Z,52.80
2018-06-16T13:28:40.176Z,53.10
2018-06-16T13:33:44.806Z,53.20
2018-06-16T13:38:49.421Z,52.40
2018-06-16T13:43:54.002Z,53.70
2018-06-16T13:48:58.657Z,52.60
2018-06-16T13:54:03.241Z,53.10
2018-06-16T13:59:07.703Z,54.30
2018-06-16T14:04:12.229Z,56.50
2018-06-16T14:09:16.766Z,56.40
2018-06-16T14:14:21.244Z,55.10
2018-06-16T14:19:25.756Z,55.70
2018-06-16T14:24:30.388Z,56.50
2018-06-16T14:29:34.866Z,56.70
2018-06-16T14:34:39.483Z,58.30
2018-06-16T14:39:44.015Z,58.10
2018-06-16T14:44:48.741Z,58.20
2018-06-16T14:49:53.221Z,56.60
2018-06-16T14:54:57.787Z,55.50
2018-06-16T15:00:02.327Z,53.80
2018-06-16T15:05:06.843Z,57.00
2018-06-16T15:10:11.401Z,57.90
2018-06-16T15:15:15.930Z,56.60
2018-06-16T15:20:20.454Z,56.10
2018-06-16T15:25:25.072Z,55.20
2018-06-16T15:30:29.753Z,53.60
2018-06-16T15:35:34.359Z,54.00
2018-06-16T15:40:38.795Z,54.10
2018-06-16T15:45:43.353Z,56.10
2018-06-16T15:50:47.923Z,57.70
2018-06-16T15:55:53.342Z,55.40
2018-06-16T16:00:57.827Z,54.10
2018-06-16T16:06:02.306Z,56.00
2018-06-16T16:11:07.030Z,57.10
2018-06-16T16:16:11.494Z,53.30
2018-06-16T16:21:16.180Z,52.70
2018-06-16T16:26:20.738Z,56.20
2018-06-16T16:31:25.307Z,57.40
2018-06-16T16:36:29.823Z,56.70
2018-06-16T16:41:34.410Z,54.00
2018-06-16T16:46:38.910Z,54.60
2018-06-16T16:51:43.479Z,54.30
2018-06-16T16:56:48.054Z,53.60
2018-06-16T17:01:52.566Z,51.00
2018-06-16T17:06:57.116Z,53.60
2018-06-16T17:12:01.564Z,53.70
2018-06-16T17:17:06.122Z,56.10
2018-06-16T17:22:10.628Z,57.50
2018-06-16T17:27:15.325Z,60.50
2018-06-16T17:32:19.869Z,63.50
2018-06-16T17:37:24.410Z,65.20
2018-06-16T17:42:28.867Z,65.40
2018-06-16T17:47:33.347Z,66.60
2018-06-16T17:52:37.884Z,68.20
2018-06-16T17:57:42.336Z,69.30
2018-06-16T18:02:46.766Z,68.80
2018-06-16T18:07:51.310Z,69.60
2018-06-16T18:12:55.807Z,70.60
2018-06-16T18:18:00.275Z,70.70
2018-06-16T18:23:04.770Z,73.20
2018-06-16T18:28:09.508Z,75.40
2018-06-16T18:33:13.951Z,76.40
2018-06-16T18:38:18.751Z,77.50
2018-06-16T18:43:23.406Z,78.30
2018-06-16T18:48:27.909Z,78.00
2018-06-16T18:53:32.529Z,78.30
2018-06-16T18:58:37.316Z,80.40
2018-06-16T19:03:41.914Z,82.50
2018-06-16T19:08:46.425Z,81.90
2018-06-16T19:13:51.083Z,84.00
2018-06-16T19:18:55.764Z,85.30
2018-06-16T19:24:00.530Z,85.60
2018-06-16T19:29:05.096Z,85.40
2018-06-16T19:34:09.918Z,85.60
2018-06-16T19:39:14.575Z,85.40
2018-06-16T19:44:19.147Z,85.80
2018-06-16T19:49:23.873Z,85.10
2018-06-16T19:54:28.422Z,86.10
2018-06-16T19:59:33.080Z,83.40
2018-06-16T20:04:39.780Z,83.70
2018-06-16T20:09:44.590Z,84.30
2018-06-16T20:14:49.082Z,84.10
2018-06-16T20:19:53.695Z,83.40
2018-06-16T20:24:58.138Z,82.50
2018-06-16T20:30:02.634Z,82.10
2018-06-16T20:35:07.145Z,83.20
2018-06-16T20:40:13.272Z,83.30
2018-06-16T20:45:18.284Z,83.40
2018-06-16T20:50:24.076Z,84.30
2018-06-16T20:55:29.623Z,85.60
2018-06-16T21:00:35.527Z,85.70
2018-06-16T21:05:41.416Z,86.10
2018-06-16T21:10:46.740Z,86.20
2018-06-16T21:15:52.715Z,85.90
2018-06-16T21:20:57.323Z,87.00
2018-06-16T21:26:08.475Z,86.70
2018-06-16T21:31:13.096Z,87.10
2018-06-16T21:36:17.588Z,87.50
2018-06-16T21:41:22.041Z,88.50
2018-06-16T21:46:26.821Z,89.20
2018-06-16T21:51:31.269Z,89.90
2018-06-16T21:56:35.813Z,91.10
2018-06-16T22:01:40.585Z,92.20
2018-06-16T22:06:45.057Z,92.30
2018-06-16T22:11:49.778Z,93.20
2018-06-16T22:16:54.263Z,93.90
2018-06-16T22:21:58.831Z,94.10
2018-06-16T22:27:03.326Z,94.00
2018-06-16T22:32:07.856Z,93.60
2018-06-16T22:37:12.332Z,93.30
2018-06-16T22:42:16.931Z,93.50
2018-06-16T22:47:21.923Z,93.80
2018-06-16T22:52:26.330Z,94.90
2018-06-16T22:57:30.958Z,95.10
2018-06-16T23:02:35.758Z,95.30
2018-06-16T23:07:41.128Z,96.10
2018-06-16T23:12:45.698Z,96.80
2018-06-16T23:17:50.213Z,97.80
2018-06-16T23:22:54.758Z,98.80
2018-06-16T23:27:59.308Z,98.90
2018-06-16T23:33:03.987Z,98.20
2018-06-16T23:38:08.964Z,97.60
2018-06-16T23:43:13.511Z,97.10
2018-06-16T23:48:18.050Z,96.80
2018-06-16T23:53:23.855Z,96.40
2018-06-16T23:58:28.388Z,96.60
